Time;durP1;ratioP1;P1;durP2;ratioP2;P2;SDS_P1;SDS_P2;PMS_P1;PMS_P2;Temp;Humidity;BMP_temperature;BMP_pressure;BME280_temperature;BME280_humidity;BME280_pressure;Samples;Min_cycle;Max_cycle;Signal;HPM_P1;HPM_P2
2022/10/23 00:01:40;;;;;;;;;;;;;;;12.27;100.00;101311.44;5033617;28;20062;-45
2022/10/23 00:04:07;;;;;;;;;;;;;;;12.27;100.00;101314.13;5035732;28;19912;-43
2022/10/23 00:06:33;;;;;;;;;;;;;;;12.27;100.00;101314.13;5032732;28;19979;-44
2022/10/23 00:08:58;;;;;;;;;;;;;;;12.27;100.00;101319.47;5016559;28;19928;-44
2022/10/23 00:11:25;;;;;;;;;;;;;;;12.25;100.00;101318.78;5019183;28;19918;-47
2022/10/23 00:13:52;;;;;;;;;;;;;;;12.25;100.00;101313.44;5031229;28;20414;-47
2022/10/23 00:16:17;;;;;;;;;;;;;;;12.25;100.00;101301.88;5037414;28;19932;-47
2022/10/23 00:18:44;;;;;;;;;;;;;;;12.25;100.00;101307.22;5036949;28;19936;-46
2022/10/23 00:21:10;;;;;;;;;;;;;;;12.23;100.00;101296.66;5037114;28;20025;-45
2022/10/23 00:23:36;;;;;;;;;;;;;;;12.23;100.00;101304.69;5031748;28;20339;-45
2022/10/23 00:26:01;;;;;;;;;;;;;;;12.24;100.00;101305.56;5037953;28;19917;-46
2022/10/23 00:28:27;;;;;;;;;;;;;;;12.22;100.00;101308.41;5037761;28;19919;-46
2022/10/23 00:30:52;;;;;;;;;;;;;;;12.19;100.00;101311.38;5035851;28;20176;-42
2022/10/23 00:33:17;;;;;;;;;;;;;;;12.22;100.00;101311.06;5028660;28;19967;-45
2022/10/23 00:35:42;;;;;;;;;;;;;;;12.21;100.00;101306.72;5027235;28;20303;-44
2022/10/23 00:38:08;;;;;;;;;;;;;;;12.21;100.00;101311.22;5037519;28;19916;-46
2022/10/23 00:40:34;;;;;;;;;;;;;;;12.21;100.00;101309.38;5036128;28;20002;-44
2022/10/23 00:42:59;;;;;;;;;;;;;;;12.23;100.00;101314.59;5027818;28;20015;-45
2022/10/23 00:45:25;;;;;;;;;;;;;;;12.23;100.00;101311.91;5030811;28;20434;-44
2022/10/23 00:47:51;;;;;;;;;;;;;;;12.23;100.00;101311.91;5036626;28;19921;-44
2022/10/23 00:50:17;;;;;;;;;;;;;;;12.26;100.00;101303.56;5035980;28;20054;-46
2022/10/23 00:52:47;;;;;;;;;;;;;;;12.26;100.00;101304.38;5031630;28;19912;-43
2022/10/23 00:55:13;;;;;;;;;;;;;;;12.26;100.00;101307.06;5034907;28;20398;-46
2022/10/23 00:57:42;;;;;;;;;;;;;;;12.27;100.00;101306.06;5036364;28;19927;-46
2022/10/23 01:00:10;;;;;;;;;;;;;;;12.27;100.00;101308.75;5021207;28;19917;-45
2022/10/23 01:02:36;;;;;;;;;;;;;;;12.26;100.00;101307.06;5039784;28;20229;-43
2022/10/23 01:05:01;;;;;;;;;;;;;;;12.26;100.00;101312.41;5037651;28;19984;-43
2022/10/23 01:07:30;;;;;;;;;;;;;;;12.26;100.00;101308.91;5029331;28;20006;-46
2022/10/23 01:10:02;;;;;;;;;;;;;;;12.26;100.00;101306.22;5038260;28;19923;-44
2022/10/23 01:12:31;;;;;;;;;;;;;;;12.24;100.00;101298.34;4993834;28;798125;-44
2022/10/23 01:15:15;;;;;;;;;;;;;;;12.23;100.00;101296.66;5030739;28;19933;-48
2022/10/23 01:17:42;;;;;;;;;;;;;;;12.23;100.00;101293.16;5027174;28;20390;-43
2022/10/23 01:20:31;;;;;;;;;;;;;;;12.22;100.00;101292.34;5039419;28;20373;-43
2022/10/23 01:23:02;;;;;;;;;;;;;;;12.22;100.00;101300.38;5017150;28;20436;-43
2022/10/23 01:25:41;;;;;;;;;;;;;;;12.21;100.00;101292.50;5037306;28;19959;-46
2022/10/23 01:28:10;;;;;;;;;;;;;;;12.19;100.00;101295.31;5041209;28;19920;-44
2022/10/23 01:30:39;;;;;;;;;;;;;;;12.17;100.00;101293.78;5039498;28;19956;-43
2022/10/23 01:33:07;;;;;;;;;;;;;;;12.14;100.00;101292.28;5040641;28;20000;-44
2022/10/23 01:35:39;;;;;;;;;;;;;;;12.08;100.00;101287.56;5039391;28;20072;-45
2022/10/23 01:38:16;;;;;;;;;;;;;;;12.04;100.00;101286.22;5040263;28;19912;-46
2022/10/23 01:40:41;;;;;;;;;;;;;;;11.99;100.00;101292.03;5035535;28;19920;-45
2022/10/23 01:43:12;;;;;;;;;;;;;;;11.94;100.00;101279.13;5040155;28;19912;-45
2022/10/23 01:45:49;;;;;;;;;;;;;;;11.92;100.00;101274.94;5040118;28;19939;-43
2022/10/23 01:48:17;;;;;;;;;;;;;;;11.91;100.00;101267.91;5039458;28;19913;-46
2022/10/23 01:50:44;;;;;;;;;;;;;;;11.89;100.00;101262.69;5037023;28;19928;-46
2022/10/23 01:53:09;;;;;;;;;;;;;;;11.90;100.00;101253.66;5040266;28;19917;-47
2022/10/23 01:55:36;;;;;;;;;;;;;;;11.89;100.00;101260.00;5038674;28;20167;-42
2022/10/23 01:58:01;;;;;;;;;;;;;;;11.88;100.00;101253.00;5038733;28;19966;-46
2022/10/23 02:00:26;;;;;;;;;;;;;;;11.88;100.00;101253.00;5039459;28;19921;-48
2022/10/23 02:02:53;;;;;;;;;;;;;;;11.86;100.00;101249.63;5040196;28;19981;-46
2022/10/23 02:05:28;;;;;;;;;;;;;;;11.85;100.00;101247.13;5038402;28;20364;-43
2022/10/23 02:07:54;;;;;;;;;;;;;;;11.83;100.00;101252.63;5039786;28;19963;-43
2022/10/23 02:10:20;;;;;;;;;;;;;;;11.82;100.00;101255.47;5037754;28;19956;-42
2022/10/23 02:13:04;;;;;;;;;;;;;;;11.81;100.00;101248.41;5040289;28;20141;-45
2022/10/23 02:15:35;;;;;;;;;;;;;;;11.79;100.00;101247.75;5039377;28;19912;-45
2022/10/23 02:18:23;;;;;;;;;;;;;;;11.77;100.00;101247.91;5039924;28;20212;-46
2022/10/23 02:20:56;;;;;;;;;;;;;;;11.74;100.00;101243.72;5005904;28;20043;-42
2022/10/23 02:23:32;;;;;;;;;;;;;;;11.74;100.00;101240.19;5035971;28;20136;-47
2022/10/23 02:26:26;;;;;;;;;;;;;;;11.72;100.00;101239.50;5038728;28;20387;-44
2022/10/23 02:28:55;;;;;;;;;;;;;;;11.69;100.00;101240.69;5024959;28;19959;-44
2022/10/23 02:31:21;;;;;;;;;;;;;;;11.69;100.00;101243.38;5038985;28;20346;-46
2022/10/23 02:33:46;;;;;;;;;;;;;;;11.68;100.00;101235.50;5040212;28;19944;-45
2022/10/23 02:36:11;;;;;;;;;;;;;;;11.68;100.00;101228.28;5036941;28;19921;-44
2022/10/23 02:38:41;;;;;;;;;;;;;;;11.69;100.00;101221.97;5038722;28;20453;-45
2022/10/23 02:41:06;;;;;;;;;;;;;;;11.69;100.00;101221.97;5039081;28;20275;-43
2022/10/23 02:43:36;;;;;;;;;;;;;;;11.71;100.00;101219.94;5036720;28;19924;-45
2022/10/23 02:46:04;;;;;;;;;;;;;;;11.73;100.00;101212.59;5013117;28;19916;-46
2022/10/23 02:48:41;;;;;;;;;;;;;;;11.77;100.00;101207.75;5030543;28;20304;-44
2022/10/23 02:51:13;;;;;;;;;;;;;;;11.79;100.00;101192.38;5037814;28;20343;-45
2022/10/23 02:53:47;;;;;;;;;;;;;;;11.82;100.00;101181.34;5035942;28;20016;-44
2022/10/23 02:56:42;;;;;;;;;;;;;;;11.83;100.00;101177.69;5023068;28;19921;-43
2022/10/23 02:59:18;;;;;;;;;;;;;;;11.86;100.00;101169.34;5029873;28;20456;-47
2022/10/23 03:01:48;;;;;;;;;;;;;;;11.87;100.00;101162.97;5038664;28;19996;-43
2022/10/23 03:04:14;;;;;;;;;;;;;;;11.92;100.00;101165.22;5036908;28;20371;-43
2022/10/23 03:06:40;;;;;;;;;;;;;;;11.93;100.00;101162.38;5038367;28;19917;-43
2022/10/23 03:09:06;;;;;;;;;;;;;;;11.96;100.00;101155.00;5038313;28;20336;-47
2022/10/23 03:11:32;;;;;;;;;;;;;;;11.99;100.00;101157.38;5038126;28;20011;-47
2022/10/23 03:13:57;;;;;;;;;;;;;;;12.01;100.00;101160.72;5038570;28;20066;-44
2022/10/23 03:16:22;;;;;;;;;;;;;;;12.01;100.00;101148.16;5037968;28;19951;-45
2022/10/23 03:18:48;;;;;;;;;;;;;;;12.03;100.00;101143.50;5032137;28;20388;-44
2022/10/23 03:21:13;;;;;;;;;;;;;;;12.06;100.00;101153.03;5017700;28;19928;-45
2022/10/23 03:23:38;;;;;;;;;;;;;;;12.06;100.00;101148.50;5036701;28;20209;-45
2022/10/23 03:26:04;;;;;;;;;;;;;;;12.07;100.00;101141.34;5038410;28;20398;-45
2022/10/23 03:28:29;;;;;;;;;;;;;;;12.06;100.00;101137.81;5037659;28;19917;-45
2022/10/23 03:30:55;;;;;;;;;;;;;;;12.07;100.00;101125.28;5033548;28;20004;-44
2022/10/23 03:33:20;;;;;;;;;;;;;;;12.08;100.00;101133.16;5038444;28;19917;-43
2022/10/23 03:35:46;;;;;;;;;;;;;;;12.06;100.00;101127.09;5037124;28;19987;-47
2022/10/23 03:38:11;;;;;;;;;;;;;;;12.07;100.00;101127.94;5037039;28;19913;-42
2022/10/23 03:40:37;;;;;;;;;;;;;;;12.06;100.00;101124.41;5037808;28;19917;-43
2022/10/23 03:43:02;;;;;;;;;;;;;;;12.07;100.00;101119.91;5037480;28;19958;-43
2022/10/23 03:45:27;;;;;;;;;;;;;;;12.07;100.00;101119.91;5037118;28;19924;-41
2022/10/23 03:47:52;;;;;;;;;;;;;;;12.09;100.00;101109.88;5019854;28;19916;-46
2022/10/23 03:50:18;;;;;;;;;;;;;;;12.09;100.00;101112.56;5036854;28;20328;-43
2022/10/23 03:52:43;;;;;;;;;;;;;;;12.10;100.00;101123.09;5031321;28;20027;-46
2022/10/23 03:55:09;;;;;;;;;;;;;;;12.13;100.00;101116.56;5037387;28;19917;-46
2022/10/23 03:57:34;;;;;;;;;;;;;;;12.15;100.00;101119.09;5036910;28;19959;-43
2022/10/23 03:59:59;;;;;;;;;;;;;;;12.13;100.00;101112.06;5037246;28;19921;-44
2022/10/23 04:02:25;;;;;;;;;;;;;;;12.14;100.00;101107.53;5036342;28;20444;-43
2022/10/23 04:04:50;;;;;;;;;;;;;;;12.15;100.00;101105.69;5033470;28;20336;-43
2022/10/23 04:07:15;;;;;;;;;;;;;;;12.13;100.00;101101.38;5034836;28;20916;-44
2022/10/23 04:09:40;;;;;;;;;;;;;;;12.14;100.00;101099.50;5036394;28;20221;-41
2022/10/23 04:12:06;;;;;;;;;;;;;;;12.16;100.00;101089.47;5038175;28;19971;-48
2022/10/23 04:14:31;;;;;;;;;;;;;;;12.16;100.00;101084.13;5038416;28;19986;-47
2022/10/23 04:16:56;;;;;;;;;;;;;;;12.18;100.00;101081.28;5037192;28;20315;-45
2022/10/23 04:19:21;;;;;;;;;;;;;;;12.19;100.00;101070.41;5037213;28;20323;-44
2022/10/23 04:21:47;;;;;;;;;;;;;;;12.21;100.00;101068.38;5037429;28;19913;-45
2022/10/23 04:24:12;;;;;;;;;;;;;;;12.21;100.00;101072.91;5022787;28;20266;-44
2022/10/23 04:26:37;;;;;;;;;;;;;;;12.21;100.00;101067.56;5035486;28;20351;-45
2022/10/23 04:29:02;;;;;;;;;;;;;;;12.20;100.00;101077.41;5037800;28;19924;-47
2022/10/23 04:31:27;;;;;;;;;;;;;;;12.20;100.00;101074.72;5037352;28;19913;-43
2022/10/23 04:33:53;;;;;;;;;;;;;;;12.21;100.00;101071.06;5019286;28;19924;-43
2022/10/23 04:36:18;;;;;;;;;;;;;;;12.22;100.00;101070.06;5034371;28;19923;-46
2022/10/23 04:38:43;;;;;;;;;;;;;;;12.22;100.00;101072.75;5034313;28;19917;-42
2022/10/23 04:41:08;;;;;;;;;;;;;;;12.22;100.00;101071.88;5037294;28;19924;-47
2022/10/23 04:43:34;;;;;;;;;;;;;;;12.22;100.00;101063.84;5036546;28;20164;-43
2022/10/23 04:45:59;;;;;;;;;;;;;;;12.20;100.00;101066.69;5036105;28;20487;-46
2022/10/23 04:48:24;;;;;;;;;;;;;;;12.19;100.00;101070.41;5037371;28;19913;-46
2022/10/23 04:51:00;;;;;;;;;;;;;;;12.18;100.00;101073.25;5035944;28;19912;-44
2022/10/23 04:53:26;;;;;;;;;;;;;;;12.18;100.00;101073.25;5036493;28;19913;-43
2022/10/23 04:55:52;;;;;;;;;;;;;;;12.16;100.00;101070.72;5036604;28;20023;-45
2022/10/23 04:58:18;;;;;;;;;;;;;;;12.12;100.00;101058.69;5020618;28;19917;-42
2022/10/23 05:00:43;;;;;;;;;;;;;;;12.10;100.00;101058.00;5034311;28;20180;-43
2022/10/23 05:03:09;;;;;;;;;;;;;;;12.09;100.00;101059.00;5041113;28;19927;-41
2022/10/23 05:05:34;;;;;;;;;;;;;;;12.08;100.00;101057.31;5038983;28;19913;-44
2022/10/23 05:07:59;;;;;;;;;;;;;;;12.06;100.00;101049.47;5033840;28;19927;-42
2022/10/23 05:10:24;;;;;;;;;;;;;;;12.04;100.00;101056.00;5040545;28;19919;-43
2022/10/23 05:12:49;;;;;;;;;;;;;;;12.01;100.00;101050.97;5040324;28;19990;-46
2022/10/23 05:15:14;;;;;;;;;;;;;;;11.99;100.00;101045.78;5039945;28;20303;-42
2022/10/23 05:17:42;;;;;;;;;;;;;;;11.96;100.00;101043.44;5040906;28;20019;-41
2022/10/23 05:20:11;;;;;;;;;;;;;;;11.95;100.00;101044.44;5038772;28;20375;-47
2022/10/23 05:22:38;;;;;;;;;;;;;;;11.93;100.00;101044.59;5041112;28;19952;-42
2022/10/23 05:25:03;;;;;;;;;;;;;;;11.92;100.00;101045.59;5025670;28;20003;-46
2022/10/23 05:27:29;;;;;;;;;;;;;;;11.91;100.00;101043.09;5040766;28;20012;-43
2022/10/23 05:29:54;;;;;;;;;;;;;;;11.91;100.00;101043.09;5038937;28;20330;-42
2022/10/23 05:32:20;;;;;;;;;;;;;;;11.89;100.00;101035.19;5034430;28;19976;-44
2022/10/23 05:34:45;;;;;;;;;;;;;;;11.89;100.00;101032.50;5039006;28;20389;-44
2022/10/23 05:37:12;;;;;;;;;;;;;;;11.89;100.00;101035.19;5040100;28;20544;-43
2022/10/23 05:39:37;;;;;;;;;;;;;;;11.91;100.00;101038.59;5038419;28;20414;-46
2022/10/23 05:42:03;;;;;;;;;;;;;;;11.92;100.00;101029.53;5027912;28;19916;-46
2022/10/23 05:44:28;;;;;;;;;;;;;;;11.94;100.00;101034.72;5039993;28;20012;-45
2022/10/23 05:46:53;;;;;;;;;;;;;;;11.95;100.00;101025.72;5039152;28;19916;-46
2022/10/23 05:49:18;;;;;;;;;;;;;;;11.95;100.00;101031.06;5039709;28;19919;-45
2022/10/23 05:51:43;;;;;;;;;;;;;;;11.96;100.00;101022.00;5039324;28;20281;-47
2022/10/23 05:54:09;;;;;;;;;;;;;;;11.96;100.00;101027.38;5039000;28;20233;-43
2022/10/23 05:56:35;;;;;;;;;;;;;;;11.97;100.00;101012.16;5040097;28;20004;-46
2022/10/23 05:59:00;;;;;;;;;;;;;;;11.97;100.00;101028.22;5026355;28;20342;-44
2022/10/23 06:01:25;;;;;;;;;;;;;;;11.95;100.00;101017.69;5039310;28;20386;-42
2022/10/23 06:03:51;;;;;;;;;;;;;;;11.94;100.00;101014.16;5017676;28;19944;-42
2022/10/23 06:06:16;;;;;;;;;;;;;;;11.94;100.00;101007.97;5037724;28;19927;-47
2022/10/23 06:08:41;;;;;;;;;;;;;;;11.94;100.00;101008.78;5038849;28;20283;-47
2022/10/23 06:11:07;;;;;;;;;;;;;;;11.96;100.00;101011.31;5038622;28;20181;-46
2022/10/23 06:13:33;;;;;;;;;;;;;;;11.99;100.00;101010.16;5033468;28;19963;-42
2022/10/23 06:15:58;;;;;;;;;;;;;;;12.00;100.00;101001.97;5036386;28;19912;-43
2022/10/23 06:18:23;;;;;;;;;;;;;;;12.01;100.00;100987.56;5038795;28;19920;-42
2022/10/23 06:20:49;;;;;;;;;;;;;;;12.01;100.00;100990.22;5038362;28;19916;-45
2022/10/23 06:23:14;;;;;;;;;;;;;;;12.02;100.00;100993.75;5033559;28;19936;-47
2022/10/23 06:25:39;;;;;;;;;;;;;;;12.03;100.00;100995.41;5027794;28;19974;-46
2022/10/23 06:28:04;;;;;;;;;;;;;;;12.02;100.00;101001.78;5036819;28;19921;-45
2022/10/23 06:30:29;;;;;;;;;;;;;;;12.02;100.00;100996.44;5036310;28;19963;-43
2022/10/23 06:32:55;;;;;;;;;;;;;;;12.03;100.00;100995.41;5039219;28;19920;-43
2022/10/23 06:35:20;;;;;;;;;;;;;;;12.04;100.00;100997.09;5032695;28;20370;-42
2022/10/23 06:37:45;;;;;;;;;;;;;;;12.06;100.00;100981.72;5036686;28;19917;-45
2022/10/23 06:40:10;;;;;;;;;;;;;;;12.07;100.00;100978.88;5038937;28;20154;-43
2022/10/23 06:42:36;;;;;;;;;;;;;;;12.08;100.00;100985.91;5032068;28;19916;-43
2022/10/23 06:45:01;;;;;;;;;;;;;;;12.08;100.00;100975.19;5030463;28;19921;-43
2022/10/23 06:47:26;;;;;;;;;;;;;;;12.09;100.00;100968.00;5015278;28;19913;-47
2022/10/23 06:49:51;;;;;;;;;;;;;;;12.10;100.00;100958.94;5029855;28;20371;-43
2022/10/23 06:52:16;;;;;;;;;;;;;;;12.12;100.00;100962.31;5020710;28;19912;-43
2022/10/23 06:54:42;;;;;;;;;;;;;;;12.12;100.00;100956.94;5028900;28;19917;-42
2022/10/23 06:57:07;;;;;;;;;;;;;;;12.14;100.00;100965.66;5021688;28;20039;-42
2022/10/23 06:59:32;;;;;;;;;;;;;;;12.15;100.00;100967.28;5024241;28;19932;-45
2022/10/23 07:01:57;;;;;;;;;;;;;;;12.19;100.00;100959.78;5034444;28;20022;-43
2022/10/23 07:04:22;;;;;;;;;;;;;;;12.23;100.00;100967.28;5032230;28;20074;-43
2022/10/23 07:06:48;;;;;;;;;;;;;;;12.26;100.00;100966.97;5018083;28;20368;-43
2022/10/23 07:09:13;;;;;;;;;;;;;;;12.30;100.00;100967.47;5033303;28;19917;-44
2022/10/23 07:11:38;;;;;;;;;;;;;;;12.34;100.00;100970.63;5034719;28;19917;-43
2022/10/23 07:14:03;;;;;;;;;;;;;;;12.38;100.00;100972.81;5037896;28;19975;-43
2022/10/23 07:16:28;;;;;;;;;;;;;;;12.42;100.00;100967.94;5036104;28;20324;-42
2022/10/23 07:18:58;;;;;;;;;;;;;;;12.46;100.00;100966.63;5031932;28;19979;-44
2022/10/23 07:21:33;;;;;;;;;;;;;;;12.50;100.00;100971.44;5027235;28;20239;-44
2022/10/23 07:23:59;;;;;;;;;;;;;;;12.54;100.00;100961.22;5031906;28;19936;-42
2022/10/23 07:26:24;;;;;;;;;;;;;;;12.57;100.00;100955.53;5037198;28;20366;-44
2022/10/23 07:28:53;;;;;;;;;;;;;;;12.61;100.00;100954.19;5026327;28;19917;-42
2022/10/23 07:31:19;;;;;;;;;;;;;;;12.66;100.00;100943.78;5035914;28;19917;-44
2022/10/23 07:33:44;;;;;;;;;;;;;;;12.69;100.00;100946.13;5017419;28;20253;-43
2022/10/23 07:36:09;;;;;;;;;;;;;;;12.74;100.00;100945.59;5033984;28;19947;-44
2022/10/23 07:38:34;;;;;;;;;;;;;;;12.77;100.00;100937.22;5030838;28;19920;-44
2022/10/23 07:41:00;;;;;;;;;;;;;;;12.81;100.00;100943.06;5033513;28;19928;-47
2022/10/23 07:43:26;;;;;;;;;;;;;;;12.83;100.00;100941.88;5027281;28;21311;-44
2022/10/23 07:45:51;;;;;;;;;;;;;;;12.87;100.00;100937.00;5031303;28;20012;-47
2022/10/23 07:48:16;;;;;;;;;;;;;;;12.91;100.00;100935.63;5018199;28;20023;-45
2022/10/23 07:50:42;;;;;;;;;;;;;;;12.95;100.00;100936.97;5034919;28;19916;-44
2022/10/23 07:53:13;;;;;;;;;;;;;;;12.98;100.00;100936.63;5036268;28;19952;-44
2022/10/23 07:55:38;;;;;;;;;;;;;;;13.03;100.00;100933.41;5037917;28;20346;-46
2022/10/23 07:58:04;;;;;;;;;;;;;;;13.08;100.00;100933.72;5036686;28;19924;-44
2022/10/23 08:00:29;;;;;;;;;;;;;;;13.12;100.00;100936.88;5017833;28;20383;-43
2022/10/23 08:02:54;;;;;;;;;;;;;;;13.16;100.00;100933.69;5036676;28;20291;-45
2022/10/23 08:05:19;;;;;;;;;;;;;;;13.22;100.00;100934.81;5016790;28;19917;-45
2022/10/23 08:07:44;;;;;;;;;;;;;;;13.28;100.00;100931.44;5035906;28;19921;-43
2022/10/23 08:10:09;;;;;;;;;;;;;;;13.34;100.00;100930.78;5035609;28;19960;-47
2022/10/23 08:12:36;;;;;;;;;;;;;;;13.40;100.00;100921.16;5032617;28;20020;-45
2022/10/23 08:15:05;;;;;;;;;;;;;;;13.49;100.00;100927.31;5050037;28;20127;-43
2022/10/23 08:17:30;;;;;;;;;;;;;;;13.56;100.00;100922.88;5033823;28;20000;-47
2022/10/23 08:19:56;;;;;;;;;;;;;;;13.64;100.00;100924.69;5034790;28;19955;-47
2022/10/23 08:22:21;;;;;;;;;;;;;;;13.70;100.00;100922.13;5037625;28;19928;-43
2022/10/23 08:24:46;;;;;;;;;;;;;;;13.79;100.00;100912.97;5014476;28;19917;-45
2022/10/23 08:27:12;;;;;;;;;;;;;;;13.88;100.00;100912.91;5036885;28;20208;-44
2022/10/23 08:29:37;;;;;;;;;;;;;;;13.93;100.00;100918.56;5030192;28;19936;-43
2022/10/23 08:32:02;;;;;;;;;;;;;;;13.99;100.00;100918.69;5036675;28;19913;-43
2022/10/23 08:34:28;;;;;;;;;;;;;;;14.07;100.00;100922.31;5033544;28;19913;-42
2022/10/23 08:36:53;;;;;;;;;;;;;;;14.14;100.00;100916.03;5037516;28;19921;-43
2022/10/23 08:39:18;;;;;;;;;;;;;;;14.20;100.00;100910.94;5039984;28;19925;-45
2022/10/23 08:41:48;;;;;;;;;;;;;;;14.23;100.00;100907.91;5040026;28;20195;-44
2022/10/23 08:44:31;;;;;;;;;;;;;;;14.22;100.00;100906.22;5040514;28;19913;-45
2022/10/23 08:47:07;;;;;;;;;;;;;;;14.20;100.00;100900.19;5038673;28;19920;-43
2022/10/23 08:49:34;;;;;;;;;;;;;;;14.15;100.00;100892.69;5039541;28;19917;-43
2022/10/23 08:52:01;;;;;;;;;;;;;;;14.13;100.00;100892.03;5038755;28;21008;-43
2022/10/23 08:54:32;;;;;;;;;;;;;;;14.12;100.00;100899.28;5035318;28;19917;-47
2022/10/23 08:57:02;;;;;;;;;;;;;;;14.13;100.00;100887.50;5033747;28;20335;-47
2022/10/23 08:59:28;;;;;;;;;;;;;;;14.16;100.00;100889.00;5027352;28;20351;-45
2022/10/23 09:02:01;;;;;;;;;;;;;;;14.18;100.00;100882.41;5031472;28;19979;-47
2022/10/23 09:04:26;;;;;;;;;;;;;;;14.24;100.00;100890.75;5038483;28;19947;-44
2022/10/23 09:07:01;;;;;;;;;;;;;;;14.29;100.00;100877.59;5038827;28;19917;-44
2022/10/23 09:09:52;;;;;;;;;;;;;;;14.33;100.00;100881.59;5037796;28;20216;-44
2022/10/23 09:12:21;;;;;;;;;;;;;;;14.33;100.00;100876.22;5016333;28;20426;-44
2022/10/23 09:15:05;;;;;;;;;;;;;;;14.32;100.00;100872.72;5031434;28;19917;-42
2022/10/23 09:17:32;;;;;;;;;;;;;;;14.31;100.00;100867.53;5036959;28;19928;-44
2022/10/23 09:20:16;;;;;;;;;;;;;;;14.30;100.00;100855.09;5025339;28;20295;-43
2022/10/23 09:22:41;;;;;;;;;;;;;;;14.34;100.00;100841.13;5038917;28;20209;-44
2022/10/23 09:25:10;;;;;;;;;;;;;;;14.40;100.00;100850.28;5039078;28;20110;-45
2022/10/23 09:27:36;;;;;;;;;;;;;;;14.45;100.00;100850.56;5040540;28;19963;-43
2022/10/23 09:30:01;;;;;;;;;;;;;;;14.52;100.00;100843.41;5034992;28;19964;-45
2022/10/23 09:32:33;;;;;;;;;;;;;;;14.56;100.00;100838.47;5027902;28;19920;-46
2022/10/23 09:34:58;;;;;;;;;;;;;;;14.61;100.00;100846.84;5036342;28;20394;-43
2022/10/23 09:37:25;;;;;;;;;;;;;;;14.65;100.00;100853.53;5038748;28;19917;-46
2022/10/23 09:40:02;;;;;;;;;;;;;;;14.68;100.00;100838.88;5038511;28;20404;-45
2022/10/23 09:42:28;;;;;;;;;;;;;;;14.72;100.00;100834.78;5039066;28;19953;-45
2022/10/23 09:44:54;;;;;;;;;;;;;;;14.78;100.00;100827.81;5038287;28;19964;-45
2022/10/23 09:47:21;;;;;;;;;;;;;;;14.81;100.00;100817.50;5032206;28;19912;-46
2022/10/23 09:49:49;;;;;;;;;;;;;;;14.88;100.00;100823.81;5024969;28;20007;-45
2022/10/23 09:52:15;;;;;;;;;;;;;;;14.95;100.00;100814.97;5038987;28;19920;-47
2022/10/23 09:54:49;;;;;;;;;;;;;;;14.98;100.00;100803.84;5036987;28;20330;-47
2022/10/23 09:57:35;;;;;;;;;;;;;;;15.07;100.00;100811.59;5039486;28;19916;-44
2022/10/23 10:00:03;;;;;;;;;;;;;;;15.14;100.00;100802.75;5027293;28;20385;-45
2022/10/23 10:02:33;;;;;;;;;;;;;;;15.19;100.00;100805.69;5038887;28;19970;-43
2022/10/23 10:04:59;;;;;;;;;;;;;;;15.22;100.00;100797.25;5037672;28;19998;-47
2022/10/23 10:07:28;;;;;;;;;;;;;;;15.23;100.00;100793.53;5038655;28;19917;-44
2022/10/23 10:09:54;;;;;;;;;;;;;;;15.27;100.00;100786.72;5038088;28;19992;-43
2022/10/23 10:12:29;;;;;;;;;;;;;;;15.29;100.00;100785.53;5038731;28;19932;-43
2022/10/23 10:15:01;;;;;;;;;;;;;;;15.34;100.00;100781.41;5033211;28;19931;-46
2022/10/23 10:17:36;;;;;;;;;;;;;;;15.35;100.00;100783.09;5038414;28;20167;-44
2022/10/23 10:20:04;;;;;;;;;;;;;;;15.34;100.00;100771.47;5037646;28;21358;-44
2022/10/23 10:22:39;;;;;;;;;;;;;;;15.37;100.00;100768.41;5036715;28;19928;-43
2022/10/23 10:25:10;;;;;;;;;;;;;;;15.43;100.00;100756.88;5037969;28;19936;-42
2022/10/23 10:27:44;;;;;;;;;;;;;;;15.51;100.00;100750.47;5025902;28;19917;-45
2022/10/23 10:30:10;;;;;;;;;;;;;;;15.62;100.00;100757.22;5021648;28;20038;-43
2022/10/23 10:32:39;;;;;;;;;;;;;;;15.71;100.00;100752.50;5037695;28;19996;-46
2022/10/23 10:35:04;;;;;;;;;;;;;;;15.79;100.00;100752.38;5036167;28;20023;-43
2022/10/23 10:37:29;;;;;;;;;;;;;;;15.84;100.00;100753.44;5036782;28;19929;-45
2022/10/23 10:40:15;;;;;;;;;;;;;;;15.90;100.00;100753.69;5036450;28;20083;-43
2022/10/23 10:42:47;;;;;;;;;;;;;;;15.95;100.00;100751.22;5027858;28;19916;-43
2022/10/23 10:45:12;;;;;;;;;;;;;;;16.03;100.00;100751.06;5018669;28;19925;-44
2022/10/23 10:47:40;;;;;;;;;;;;;;;16.12;100.00;100749.84;5037725;28;20084;-43
2022/10/23 10:50:23;;;;;;;;;;;;;;;16.23;100.00;100761.94;5036989;28;20014;-43
2022/10/23 10:52:54;;;;;;;;;;;;;;;16.35;100.00;100749.53;5035071;28;19916;-43
2022/10/23 10:55:23;;;;;;;;;;;;;;;16.50;100.00;100738.59;5019376;28;20004;-43
2022/10/23 10:57:56;;;;;;;;;;;;;;;16.60;100.00;100736.34;5037535;28;19916;-45
2022/10/23 11:00:22;;;;;;;;;;;;;;;16.68;100.00;100729.91;5037419;28;20292;-46
2022/10/23 11:03:03;;;;;;;;;;;;;;;16.83;100.00;100729.75;5034521;28;19943;-45
2022/10/23 11:05:30;;;;;;;;;;;;;;;16.98;100.00;100720.69;5016899;28;19913;-45
2022/10/23 11:08:17;;;;;;;;;;;;;;;17.12;100.00;100723.19;5035801;28;20335;-43
2022/10/23 11:10:47;;;;;;;;;;;;;;;17.24;100.00;100707.16;5035936;28;20327;-43
2022/10/23 11:13:24;;;;;;;;;;;;;;;17.31;100.00;100702.63;5037939;28;20339;-43
2022/10/23 11:15:50;;;;;;;;;;;;;;;17.32;100.00;100700.75;5036603;28;19923;-43
2022/10/23 11:18:22;;;;;;;;;;;;;;;17.37;100.00;100695.53;5038778;28;19916;-43
2022/10/23 11:20:54;;;;;;;;;;;;;;;17.42;100.00;100690.34;5036219;28;19943;-43
2022/10/23 11:23:28;;;;;;;;;;;;;;;17.47;100.00;100690.53;5026384;28;20271;-45
2022/10/23 11:25:53;;;;;;;;;;;;;;;17.55;100.00;100669.75;5033312;28;20359;-45
2022/10/23 11:28:22;;;;;;;;;;;;;;;17.61;100.00;100683.25;5038583;28;19923;-42
2022/10/23 11:30:47;;;;;;;;;;;;;;;17.61;100.00;100685.94;5020112;28;19956;-45
2022/10/23 11:33:31;;;;;;;;;;;;;;;17.64;100.00;100684.69;5036857;28;20005;-45
2022/10/23 11:35:56;;;;;;;;;;;;;;;17.72;100.00;100687.19;5016880;28;19924;-47
2022/10/23 11:38:30;;;;;;;;;;;;;;;17.73;100.00;100686.13;5019982;28;19921;-46
2022/10/23 11:40:58;;;;;;;;;;;;;;;17.81;100.00;100675.09;5031398;28;20379;-46
2022/10/23 11:43:27;;;;;;;;;;;;;;;17.92;100.00;100668.19;5036164;28;20066;-46
2022/10/23 11:45:52;;;;;;;;;;;;;;;18.08;100.00;100658.78;5037443;28;19928;-46
2022/10/23 11:48:36;;;;;;;;;;;;;;;18.20;100.00;100643.56;5037268;28;19917;-43
2022/10/23 11:51:02;;;;;;;;;;;;;;;18.39;100.00;100639.06;5036420;28;20502;-44
2022/10/23 11:53:30;;;;;;;;;;;;;;;18.57;100.00;100641.03;5046647;28;19942;-43
2022/10/23 11:56:18;;;;;;;;;;;;;;;18.69;100.00;100633.03;5036091;28;20039;-45
2022/10/23 11:58:43;;;;;;;;;;;;;;;18.77;100.00;100634.63;5027742;28;19912;-45
2022/10/23 12:01:27;;;;;;;;;;;;;;;18.78;100.00;100634.41;5032900;28;19977;-45
2022/10/23 12:04:01;;;;;;;;;;;;;;;18.81;100.00;100638.56;5036177;28;19985;-43
2022/10/23 12:06:28;;;;;;;;;;;;;;;18.82;100.00;100632.09;5035336;28;20393;-43
2022/10/23 12:08:57;;;;;;;;;;;;;;;18.73;100.00;100636.13;5038050;28;19954;-44
2022/10/23 12:11:24;;;;;;;;;;;;;;;18.68;100.00;100633.25;5042468;28;19920;-44
2022/10/23 12:13:49;;;;;;;;;;;;;;;18.62;100.00;100622.28;5036228;28;19920;-43
2022/10/23 12:16:15;;;;;;;;;;;;;;;18.57;100.00;100627.50;5023845;28;20288;-43
2022/10/23 12:18:48;;;;;;;;;;;;;;;18.61;100.00;100631.41;5040568;28;19913;-43
2022/10/23 12:21:21;;;;;;;;;;;;;;;18.67;100.00;100618.06;5036637;28;19921;-45
2022/10/23 12:24:04;;;;;;;;;;;;;;;18.68;100.00;100620.56;5036668;28;20307;-43
2022/10/23 12:26:49;;;;;;;;;;;;;;;18.62;100.00;100614.16;5040022;28;19917;-43
2022/10/23 12:29:33;;;;;;;;;;;;;;;18.60;100.00;100615.41;5041029;28;20439;-45
2022/10/23 12:31:58;;;;;;;;;;;;;;;18.57;100.00;100605.06;5031081;28;19917;-43